sensor_id;sensor_type;location;lat;lon;timestamp;P1;durP1;ratioP1;P2;durP2;ratioP2
43676;SDS011;29275;48.800;18.102;2024-02-26T00:00:51;26.05;;;16.15;;
43676;SDS011;29275;48.800;18.102;2024-02-26T00:03:54;31.98;;;19.48;;
43676;SDS011;29275;48.800;18.102;2024-02-26T00:07:01;29.70;;;18.55;;
43676;SDS011;29275;48.800;18.102;2024-02-26T00:10:05;23.90;;;16.08;;
43676;SDS011;29275;48.800;18.102;2024-02-26T00:13:08;27.83;;;18.15;;
43676;SDS011;29275;48.800;18.102;2024-02-26T00:16:11;29.50;;;16.98;;
43676;SDS011;29275;48.800;18.102;2024-02-26T00:19:14;25.88;;;16.48;;
43676;SDS011;29275;48.800;18.102;2024-02-26T00:22:17;33.30;;;17.30;;
43676;SDS011;29275;48.800;18.102;2024-02-26T00:25:20;41.22;;;20.00;;
43676;SDS011;29275;48.800;18.102;2024-02-26T00:28:23;37.60;;;18.83;;
43676;SDS011;29275;48.800;18.102;2024-02-26T00:31:27;37.65;;;21.63;;
43676;SDS011;29275;48.800;18.102;2024-02-26T00:34:30;29.27;;;19.05;;
43676;SDS011;29275;48.800;18.102;2024-02-26T00:37:33;26.50;;;16.27;;
43676;SDS011;29275;48.800;18.102;2024-02-26T00:40:36;28.50;;;17.48;;
43676;SDS011;29275;48.800;18.102;2024-02-26T00:43:39;24.95;;;15.52;;
43676;SDS011;29275;48.800;18.102;2024-02-26T00:46:45;22.52;;;14.00;;
43676;SDS011;29275;48.800;18.102;2024-02-26T00:49:48;18.02;;;12.68;;
43676;SDS011;29275;48.800;18.102;2024-02-26T00:52:52;18.48;;;13.65;;
43676;SDS011;29275;48.800;18.102;2024-02-26T00:55:55;22.85;;;14.55;;
43676;SDS011;29275;48.800;18.102;2024-02-26T00:58:58;23.23;;;15.80;;
43676;SDS011;29275;48.800;18.102;2024-02-26T01:02:01;27.40;;;16.75;;
43676;SDS011;29275;48.800;18.102;2024-02-26T01:05:05;19.80;;;13.02;;
43676;SDS011;29275;48.800;18.102;2024-02-26T01:08:08;21.35;;;14.43;;
43676;SDS011;29275;48.800;18.102;2024-02-26T01:11:11;18.83;;;12.15;;
43676;SDS011;29275;48.800;18.102;2024-02-26T01:14:14;18.63;;;12.52;;
43676;SDS011;29275;48.800;18.102;2024-02-26T01:17:17;15.02;;;10.63;;
43676;SDS011;29275;48.800;18.102;2024-02-26T01:20:21;16.45;;;10.32;;
43676;SDS011;29275;48.800;18.102;2024-02-26T01:23:24;20.23;;;13.57;;
43676;SDS011;29275;48.800;18.102;2024-02-26T01:26:27;17.50;;;11.88;;
43676;SDS011;29275;48.800;18.102;2024-02-26T01:29:30;15.70;;;10.95;;
43676;SDS011;29275;48.800;18.102;2024-02-26T01:32:33;12.90;;;9.75;;
43676;SDS011;29275;48.800;18.102;2024-02-26T01:35:36;14.85;;;10.00;;
43676;SDS011;29275;48.800;18.102;2024-02-26T01:38:39;17.95;;;12.85;;
43676;SDS011;29275;48.800;18.102;2024-02-26T01:41:43;18.65;;;11.68;;
43676;SDS011;29275;48.800;18.102;2024-02-26T01:44:46;18.77;;;10.32;;
43676;SDS011;29275;48.800;18.102;2024-02-26T01:47:49;16.35;;;11.15;;
43676;SDS011;29275;48.800;18.102;2024-02-26T01:50:53;14.40;;;10.85;;
43676;SDS011;29275;48.800;18.102;2024-02-26T01:53:57;15.68;;;10.18;;
43676;SDS011;29275;48.800;18.102;2024-02-26T01:57:01;14.32;;;9.68;;
43676;SDS011;29275;48.800;18.102;2024-02-26T02:00:05;14.18;;;9.82;;
43676;SDS011;29275;48.800;18.102;2024-02-26T02:03:10;14.32;;;9.50;;
43676;SDS011;29275;48.800;18.102;2024-02-26T02:06:13;15.45;;;9.25;;
43676;SDS011;29275;48.800;18.102;2024-02-26T02:09:18;12.23;;;8.63;;
43676;SDS011;29275;48.800;18.102;2024-02-26T02:12:21;12.57;;;8.65;;
43676;SDS011;29275;48.800;18.102;2024-02-26T02:15:24;12.40;;;8.85;;
43676;SDS011;29275;48.800;18.102;2024-02-26T02:18:27;17.08;;;10.77;;
43676;SDS011;29275;48.800;18.102;2024-02-26T02:21:30;15.80;;;10.98;;
43676;SDS011;29275;48.800;18.102;2024-02-26T02:24:33;14.95;;;9.95;;
43676;SDS011;29275;48.800;18.102;2024-02-26T02:27:37;13.38;;;9.07;;
43676;SDS011;29275;48.800;18.102;2024-02-26T02:30:40;14.63;;;9.15;;
43676;SDS011;29275;48.800;18.102;2024-02-26T02:33:42;14.25;;;8.85;;
43676;SDS011;29275;48.800;18.102;2024-02-26T02:36:52;12.20;;;8.43;;
43676;SDS011;29275;48.800;18.102;2024-02-26T02:39:55;12.27;;;8.68;;
43676;SDS011;29275;48.800;18.102;2024-02-26T02:43:00;10.75;;;8.07;;
43676;SDS011;29275;48.800;18.102;2024-02-26T02:46:04;12.77;;;7.82;;
43676;SDS011;29275;48.800;18.102;2024-02-26T02:49:10;12.27;;;7.68;;
43676;SDS011;29275;48.800;18.102;2024-02-26T02:52:13;10.90;;;7.72;;
43676;SDS011;29275;48.800;18.102;2024-02-26T02:55:16;10.77;;;7.47;;
43676;SDS011;29275;48.800;18.102;2024-02-26T02:58:19;11.98;;;8.43;;
43676;SDS011;29275;48.800;18.102;2024-02-26T03:01:22;11.93;;;8.52;;
43676;SDS011;29275;48.800;18.102;2024-02-26T03:04:24;13.73;;;8.82;;
43676;SDS011;29275;48.800;18.102;2024-02-26T03:07:27;15.88;;;9.27;;
43676;SDS011;29275;48.800;18.102;2024-02-26T03:10:30;12.02;;;8.75;;
43676;SDS011;29275;48.800;18.102;2024-02-26T03:13:33;15.07;;;8.88;;
43676;SDS011;29275;48.800;18.102;2024-02-26T03:16:36;13.43;;;8.75;;
43676;SDS011;29275;48.800;18.102;2024-02-26T03:19:39;14.40;;;8.20;;
43676;SDS011;29275;48.800;18.102;2024-02-26T03:22:42;12.93;;;8.07;;
43676;SDS011;29275;48.800;18.102;2024-02-26T03:25:45;11.98;;;7.57;;
43676;SDS011;29275;48.800;18.102;2024-02-26T03:28:50;13.50;;;7.82;;
43676;SDS011;29275;48.800;18.102;2024-02-26T03:31:53;12.35;;;7.63;;
43676;SDS011;29275;48.800;18.102;2024-02-26T03:34:55;11.90;;;7.93;;
43676;SDS011;29275;48.800;18.102;2024-02-26T03:37:58;12.52;;;8.90;;
43676;SDS011;29275;48.800;18.102;2024-02-26T03:41:01;9.90;;;6.90;;
43676;SDS011;29275;48.800;18.102;2024-02-26T03:44:04;13.50;;;7.88;;
43676;SDS011;29275;48.800;18.102;2024-02-26T03:47:07;12.73;;;8.20;;
43676;SDS011;29275;48.800;18.102;2024-02-26T03:50:10;13.82;;;7.55;;
43676;SDS011;29275;48.800;18.102;2024-02-26T03:53:12;12.10;;;8.20;;
43676;SDS011;29275;48.800;18.102;2024-02-26T03:56:16;11.43;;;7.90;;
43676;SDS011;29275;48.800;18.102;2024-02-26T03:59:19;12.00;;;7.97;;
43676;SDS011;29275;48.800;18.102;2024-02-26T04:02:22;10.10;;;7.22;;
43676;SDS011;29275;48.800;18.102;2024-02-26T04:05:25;12.38;;;7.57;;
43676;SDS011;29275;48.800;18.102;2024-02-26T04:08:28;12.55;;;7.53;;
43676;SDS011;29275;48.800;18.102;2024-02-26T04:11:31;11.02;;;7.50;;
43676;SDS011;29275;48.800;18.102;2024-02-26T04:14:35;15.35;;;7.65;;
43676;SDS011;29275;48.800;18.102;2024-02-26T04:17:38;12.10;;;7.82;;
43676;SDS011;29275;48.800;18.102;2024-02-26T04:20:41;10.90;;;6.93;;
43676;SDS011;29275;48.800;18.102;2024-02-26T04:23:46;9.75;;;7.03;;
43676;SDS011;29275;48.800;18.102;2024-02-26T04:26:51;10.18;;;7.13;;
43676;SDS011;29275;48.800;18.102;2024-02-26T04:29:54;12.05;;;7.72;;
43676;SDS011;29275;48.800;18.102;2024-02-26T04:32:57;12.20;;;7.68;;
43676;SDS011;29275;48.800;18.102;2024-02-26T04:36:00;11.00;;;6.68;;
43676;SDS011;29275;48.800;18.102;2024-02-26T04:39:03;10.23;;;7.55;;
43676;SDS011;29275;48.800;18.102;2024-02-26T04:42:06;11.30;;;7.03;;
43676;SDS011;29275;48.800;18.102;2024-02-26T04:45:09;12.15;;;7.90;;
43676;SDS011;29275;48.800;18.102;2024-02-26T04:48:11;11.38;;;7.88;;
43676;SDS011;29275;48.800;18.102;2024-02-26T04:51:14;12.15;;;7.63;;
43676;SDS011;29275;48.800;18.102;2024-02-26T04:54:17;12.82;;;7.82;;
43676;SDS011;29275;48.800;18.102;2024-02-26T04:57:21;11.20;;;6.93;;
43676;SDS011;29275;48.800;18.102;2024-02-26T05:00:24;9.55;;;6.72;;
43676;SDS011;29275;48.800;18.102;2024-02-26T05:03:26;10.50;;;6.63;;
43676;SDS011;29275;48.800;18.102;2024-02-26T05:06:29;10.90;;;6.88;;
43676;SDS011;29275;48.800;18.102;2024-02-26T05:09:32;9.73;;;7.00;;
43676;SDS011;29275;48.800;18.102;2024-02-26T05:12:35;10.48;;;7.18;;
43676;SDS011;29275;48.800;18.102;2024-02-26T05:15:38;12.02;;;6.95;;
43676;SDS011;29275;48.800;18.102;2024-02-26T05:18:41;11.77;;;7.20;;
43676;SDS011;29275;48.800;18.102;2024-02-26T05:21:44;12.50;;;6.85;;
43676;SDS011;29275;48.800;18.102;2024-02-26T05:24:46;14.27;;;8.07;;
43676;SDS011;29275;48.800;18.102;2024-02-26T05:27:49;11.55;;;7.75;;
43676;SDS011;29275;48.800;18.102;2024-02-26T05:30:52;11.55;;;6.93;;
43676;SDS011;29275;48.800;18.102;2024-02-26T05:33:54;13.13;;;7.63;;
43676;SDS011;29275;48.800;18.102;2024-02-26T05:36:58;11.43;;;7.18;;
43676;SDS011;29275;48.800;18.102;2024-02-26T05:40:01;9.98;;;6.50;;
43676;SDS011;29275;48.800;18.102;2024-02-26T05:43:07;10.48;;;6.72;;
43676;SDS011;29275;48.800;18.102;2024-02-26T05:46:10;12.65;;;7.03;;
43676;SDS011;29275;48.800;18.102;2024-02-26T05:49:15;11.52;;;7.28;;
43676;SDS011;29275;48.800;18.102;2024-02-26T05:52:21;14.05;;;7.20;;
43676;SDS011;29275;48.800;18.102;2024-02-26T05:55:27;11.00;;;6.80;;
43676;SDS011;29275;48.800;18.102;2024-02-26T05:58:30;11.80;;;7.88;;
43676;SDS011;29275;48.800;18.102;2024-02-26T06:01:33;10.48;;;6.68;;
43676;SDS011;29275;48.800;18.102;2024-02-26T06:04:36;11.77;;;7.28;;
43676;SDS011;29275;48.800;18.102;2024-02-26T06:07:39;10.77;;;6.90;;
43676;SDS011;29275;48.800;18.102;2024-02-26T06:10:45;9.23;;;6.43;;
43676;SDS011;29275;48.800;18.102;2024-02-26T06:13:48;13.60;;;6.85;;
43676;SDS011;29275;48.800;18.102;2024-02-26T06:16:53;11.27;;;6.70;;
43676;SDS011;29275;48.800;18.102;2024-02-26T06:20:14;9.93;;;6.22;;
43676;SDS011;29275;48.800;18.102;2024-02-26T06:23:17;12.00;;;6.93;;
43676;SDS011;29275;48.800;18.102;2024-02-26T06:26:21;10.43;;;6.60;;
43676;SDS011;29275;48.800;18.102;2024-02-26T06:29:24;11.35;;;6.78;;
43676;SDS011;29275;48.800;18.102;2024-02-26T06:32:27;12.68;;;6.63;;
43676;SDS011;29275;48.800;18.102;2024-02-26T06:35:31;9.75;;;6.35;;
43676;SDS011;29275;48.800;18.102;2024-02-26T06:38:34;11.07;;;6.68;;
43676;SDS011;29275;48.800;18.102;2024-02-26T06:41:37;14.07;;;6.88;;
43676;SDS011;29275;48.800;18.102;2024-02-26T06:44:41;10.75;;;6.72;;
43676;SDS011;29275;48.800;18.102;2024-02-26T06:47:45;9.07;;;6.28;;
43676;SDS011;29275;48.800;18.102;2024-02-26T06:50:48;8.40;;;5.65;;
43676;SDS011;29275;48.800;18.102;2024-02-26T06:53:54;12.35;;;7.43;;
43676;SDS011;29275;48.800;18.102;2024-02-26T06:57:00;16.88;;;8.43;;
43676;SDS011;29275;48.800;18.102;2024-02-26T07:00:04;15.05;;;8.85;;
43676;SDS011;29275;48.800;18.102;2024-02-26T07:03:07;15.13;;;9.57;;
43676;SDS011;29275;48.800;18.102;2024-02-26T07:06:10;15.98;;;9.77;;
43676;SDS011;29275;48.800;18.102;2024-02-26T07:09:15;18.42;;;10.63;;
43676;SDS011;29275;48.800;18.102;2024-02-26T07:12:21;13.30;;;9.13;;
43676;SDS011;29275;48.800;18.102;2024-02-26T07:15:25;15.23;;;9.55;;
43676;SDS011;29275;48.800;18.102;2024-02-26T07:18:28;17.13;;;9.75;;
43676;SDS011;29275;48.800;18.102;2024-02-26T07:21:31;12.73;;;8.63;;
43676;SDS011;29275;48.800;18.102;2024-02-26T07:24:35;18.77;;;10.80;;
43676;SDS011;29275;48.800;18.102;2024-02-26T07:27:45;11.50;;;7.38;;
43676;SDS011;29275;48.800;18.102;2024-02-26T07:30:52;15.17;;;9.90;;
43676;SDS011;29275;48.800;18.102;2024-02-26T07:33:58;11.63;;;8.63;;
43676;SDS011;29275;48.800;18.102;2024-02-26T07:37:01;11.75;;;7.47;;
43676;SDS011;29275;48.800;18.102;2024-02-26T07:40:08;12.65;;;8.00;;
43676;SDS011;29275;48.800;18.102;2024-02-26T07:47:17;8.60;;;6.22;;
43676;SDS011;29275;48.800;18.102;2024-02-26T07:50:20;9.32;;;5.30;;
43676;SDS011;29275;48.800;18.102;2024-02-26T07:54:03;7.32;;;5.05;;
43676;SDS011;29275;48.800;18.102;2024-02-26T07:57:20;9.35;;;5.28;;
43676;SDS011;29275;48.800;18.102;2024-02-26T08:00:30;6.80;;;4.53;;
43676;SDS011;29275;48.800;18.102;2024-02-26T08:03:55;6.68;;;4.60;;
43676;SDS011;29275;48.800;18.102;2024-02-26T08:07:21;8.32;;;5.18;;
43676;SDS011;29275;48.800;18.102;2024-02-26T08:15:24;8.18;;;4.53;;
43676;SDS011;29275;48.800;18.102;2024-02-26T08:26:13;5.45;;;3.72;;
43676;SDS011;29275;48.800;18.102;2024-02-26T08:32:37;4.60;;;2.97;;
43676;SDS011;29275;48.800;18.102;2024-02-26T08:35:59;4.22;;;2.38;;
43676;SDS011;29275;48.800;18.102;2024-02-26T08:39:24;4.82;;;2.67;;
43676;SDS011;29275;48.800;18.102;2024-02-26T08:42:28;6.18;;;3.53;;
43676;SDS011;29275;48.800;18.102;2024-02-26T08:45:31;4.30;;;2.55;;
43676;SDS011;29275;48.800;18.102;2024-02-26T08:48:34;4.28;;;2.42;;
43676;SDS011;29275;48.800;18.102;2024-02-26T08:51:41;4.60;;;2.70;;
43676;SDS011;29275;48.800;18.102;2024-02-26T08:54:45;4.03;;;2.42;;
43676;SDS011;29275;48.800;18.102;2024-02-26T08:57:48;4.35;;;2.53;;
43676;SDS011;29275;48.800;18.102;2024-02-26T09:00:51;4.22;;;2.55;;
43676;SDS011;29275;48.800;18.102;2024-02-26T09:03:54;3.15;;;2.13;;
43676;SDS011;29275;48.800;18.102;2024-02-26T09:06:57;3.92;;;2.22;;
43676;SDS011;29275;48.800;18.102;2024-02-26T09:09:59;4.60;;;2.70;;
43676;SDS011;29275;48.800;18.102;2024-02-26T09:13:06;5.68;;;2.63;;
43676;SDS011;29275;48.800;18.102;2024-02-26T09:16:09;3.42;;;2.40;;
43676;SDS011;29275;48.800;18.102;2024-02-26T09:19:14;3.10;;;1.90;;
43676;SDS011;29275;48.800;18.102;2024-02-26T09:22:17;3.72;;;2.20;;
43676;SDS011;29275;48.800;18.102;2024-02-26T09:25:20;3.53;;;2.20;;
43676;SDS011;29275;48.800;18.102;2024-02-26T09:28:23;3.42;;;2.25;;
43676;SDS011;29275;48.800;18.102;2024-02-26T09:31:26;3.60;;;2.20;;
43676;SDS011;29275;48.800;18.102;2024-02-26T09:34:29;4.30;;;2.45;;
43676;SDS011;29275;48.800;18.102;2024-02-26T09:37:32;3.42;;;2.35;;
43676;SDS011;29275;48.800;18.102;2024-02-26T09:40:36;5.82;;;2.33;;
43676;SDS011;29275;48.800;18.102;2024-02-26T09:43:40;4.57;;;2.67;;
43676;SDS011;29275;48.800;18.102;2024-02-26T09:49:49;4.05;;;2.40;;
43676;SDS011;29275;48.800;18.102;2024-02-26T09:52:54;3.05;;;2.05;;
43676;SDS011;29275;48.800;18.102;2024-02-26T09:55:57;11.63;;;2.92;;
43676;SDS011;29275;48.800;18.102;2024-02-26T09:59:00;4.95;;;2.78;;
43676;SDS011;29275;48.800;18.102;2024-02-26T10:02:07;4.80;;;2.90;;
43676;SDS011;29275;48.800;18.102;2024-02-26T10:05:12;4.22;;;2.50;;
43676;SDS011;29275;48.800;18.102;2024-02-26T10:08:17;4.90;;;2.88;;
43676;SDS011;29275;48.800;18.102;2024-02-26T10:11:21;7.40;;;3.22;;
43676;SDS011;29275;48.800;18.102;2024-02-26T10:14:25;6.05;;;3.65;;
43676;SDS011;29275;48.800;18.102;2024-02-26T10:17:27;8.98;;;4.00;;
43676;SDS011;29275;48.800;18.102;2024-02-26T10:20:31;5.65;;;3.30;;
43676;SDS011;29275;48.800;18.102;2024-02-26T10:23:34;6.75;;;3.58;;
43676;SDS011;29275;48.800;18.102;2024-02-26T10:26:37;4.93;;;3.40;;
43676;SDS011;29275;48.800;18.102;2024-02-26T10:29:39;5.65;;;2.95;;
43676;SDS011;29275;48.800;18.102;2024-02-26T10:32:42;4.93;;;3.05;;
43676;SDS011;29275;48.800;18.102;2024-02-26T10:35:46;6.10;;;3.53;;
43676;SDS011;29275;48.800;18.102;2024-02-26T10:38:49;5.13;;;3.58;;
43676;SDS011;29275;48.800;18.102;2024-02-26T10:41:54;7.25;;;4.07;;
43676;SDS011;29275;48.800;18.102;2024-02-26T10:44:58;7.13;;;3.90;;
43676;SDS011;29275;48.800;18.102;2024-02-26T10:48:00;5.80;;;3.78;;
43676;SDS011;29275;48.800;18.102;2024-02-26T10:51:03;8.48;;;4.15;;
43676;SDS011;29275;48.800;18.102;2024-02-26T10:54:06;6.85;;;4.03;;
43676;SDS011;29275;48.800;18.102;2024-02-26T10:57:12;5.07;;;3.95;;
43676;SDS011;29275;48.800;18.102;2024-02-26T11:00:15;6.47;;;3.83;;
43676;SDS011;29275;48.800;18.102;2024-02-26T11:03:18;5.45;;;3.38;;
43676;SDS011;29275;48.800;18.102;2024-02-26T11:06:25;6.07;;;4.45;;
43676;SDS011;29275;48.800;18.102;2024-02-26T11:09:28;9.32;;;4.80;;
43676;SDS011;29275;48.800;18.102;2024-02-26T11:12:32;9.95;;;5.13;;
43676;SDS011;29275;48.800;18.102;2024-02-26T11:15:38;7.20;;;4.63;;
43676;SDS011;29275;48.800;18.102;2024-02-26T11:18:42;8.10;;;4.35;;
43676;SDS011;29275;48.800;18.102;2024-02-26T11:21:45;6.88;;;4.55;;
43676;SDS011;29275;48.800;18.102;2024-02-26T11:24:48;5.85;;;4.40;;
43676;SDS011;29275;48.800;18.102;2024-02-26T11:27:52;6.43;;;4.63;;
43676;SDS011;29275;48.800;18.102;2024-02-26T11:30:59;5.82;;;4.00;;
43676;SDS011;29275;48.800;18.102;2024-02-26T11:34:03;7.22;;;4.15;;
43676;SDS011;29275;48.800;18.102;2024-02-26T11:37:24;5.13;;;4.35;;
43676;SDS011;29275;48.800;18.102;2024-02-26T11:40:27;6.57;;;4.15;;
43676;SDS011;29275;48.800;18.102;2024-02-26T11:43:49;5.32;;;3.85;;
43676;SDS011;29275;48.800;18.102;2024-02-26T11:46:54;5.18;;;3.55;;
43676;SDS011;29275;48.800;18.102;2024-02-26T11:49:59;5.30;;;3.88;;
43676;SDS011;29275;48.800;18.102;2024-02-26T11:56:50;8.50;;;4.63;;
43676;SDS011;29275;48.800;18.102;2024-02-26T12:00:03;7.43;;;4.30;;
43676;SDS011;29275;48.800;18.102;2024-02-26T12:03:14;6.25;;;4.15;;
43676;SDS011;29275;48.800;18.102;2024-02-26T12:06:18;6.72;;;4.10;;
43676;SDS011;29275;48.800;18.102;2024-02-26T12:12:35;7.00;;;4.47;;
43676;SDS011;29275;48.800;18.102;2024-02-26T12:15:46;5.88;;;3.90;;
43676;SDS011;29275;48.800;18.102;2024-02-26T12:18:58;8.70;;;4.70;;
43676;SDS011;29275;48.800;18.102;2024-02-26T12:22:01;6.50;;;4.47;;
43676;SDS011;29275;48.800;18.102;2024-02-26T12:25:04;7.75;;;4.68;;
43676;SDS011;29275;48.800;18.102;2024-02-26T12:28:08;8.65;;;4.35;;
43676;SDS011;29275;48.800;18.102;2024-02-26T12:31:10;8.43;;;4.28;;
43676;SDS011;29275;48.800;18.102;2024-02-26T12:34:13;4.85;;;3.60;;
43676;SDS011;29275;48.800;18.102;2024-02-26T12:37:16;6.53;;;4.30;;
43676;SDS011;29275;48.800;18.102;2024-02-26T12:40:19;6.63;;;5.00;;
43676;SDS011;29275;48.800;18.102;2024-02-26T12:43:23;6.93;;;4.88;;
43676;SDS011;29275;48.800;18.102;2024-02-26T12:46:26;6.60;;;4.63;;
43676;SDS011;29275;48.800;18.102;2024-02-26T12:49:28;6.07;;;4.38;;
43676;SDS011;29275;48.800;18.102;2024-02-26T12:52:32;5.50;;;3.50;;
43676;SDS011;29275;48.800;18.102;2024-02-26T12:55:36;5.38;;;3.03;;
43676;SDS011;29275;48.800;18.102;2024-02-26T12:58:42;4.43;;;3.23;;
43676;SDS011;29275;48.800;18.102;2024-02-26T13:01:45;6.28;;;4.22;;
43676;SDS011;29275;48.800;18.102;2024-02-26T13:04:48;6.50;;;3.90;;
43676;SDS011;29275;48.800;18.102;2024-02-26T13:07:51;4.95;;;3.35;;
43676;SDS011;29275;48.800;18.102;2024-02-26T13:10:55;7.85;;;5.25;;
43676;SDS011;29275;48.800;18.102;2024-02-26T13:13:58;6.13;;;4.03;;
43676;SDS011;29275;48.800;18.102;2024-02-26T13:17:01;6.80;;;4.88;;
43676;SDS011;29275;48.800;18.102;2024-02-26T13:20:05;8.40;;;5.32;;
43676;SDS011;29275;48.800;18.102;2024-02-26T13:23:12;10.07;;;5.10;;
43676;SDS011;29275;48.800;18.102;2024-02-26T13:26:15;8.30;;;5.68;;
43676;SDS011;29275;48.800;18.102;2024-02-26T13:29:18;12.45;;;7.63;;
43676;SDS011;29275;48.800;18.102;2024-02-26T13:32:21;11.00;;;7.93;;
43676;SDS011;29275;48.800;18.102;2024-02-26T13:35:24;12.27;;;7.72;;
43676;SDS011;29275;48.800;18.102;2024-02-26T13:38:27;10.65;;;7.70;;
43676;SDS011;29275;48.800;18.102;2024-02-26T13:41:33;11.90;;;7.72;;
43676;SDS011;29275;48.800;18.102;2024-02-26T13:44:36;25.23;;;12.68;;
43676;SDS011;29275;48.800;18.102;2024-02-26T13:47:42;17.23;;;10.68;;
43676;SDS011;29275;48.800;18.102;2024-02-26T13:50:45;12.63;;;9.07;;
43676;SDS011;29275;48.800;18.102;2024-02-26T13:53:48;11.80;;;8.48;;
43676;SDS011;29275;48.800;18.102;2024-02-26T13:56:51;13.88;;;9.38;;
43676;SDS011;29275;48.800;18.102;2024-02-26T13:59:55;13.23;;;9.27;;
43676;SDS011;29275;48.800;18.102;2024-02-26T14:02:58;14.20;;;9.95;;
43676;SDS011;29275;48.800;18.102;2024-02-26T14:06:02;11.88;;;8.98;;
43676;SDS011;29275;48.800;18.102;2024-02-26T14:09:05;14.20;;;9.90;;
43676;SDS011;29275;48.800;18.102;2024-02-26T14:12:08;13.65;;;9.40;;
43676;SDS011;29275;48.800;18.102;2024-02-26T14:15:11;15.25;;;9.02;;
43676;SDS011;29275;48.800;18.102;2024-02-26T14:18:14;13.98;;;9.40;;
43676;SDS011;29275;48.800;18.102;2024-02-26T14:21:17;12.93;;;9.15;;
43676;SDS011;29275;48.800;18.102;2024-02-26T14:24:20;14.80;;;9.18;;
43676;SDS011;29275;48.800;18.102;2024-02-26T14:27:23;14.85;;;9.73;;
43676;SDS011;29275;48.800;18.102;2024-02-26T14:30:26;10.75;;;8.35;;
43676;SDS011;29275;48.800;18.102;2024-02-26T14:33:30;13.50;;;9.65;;
43676;SDS011;29275;48.800;18.102;2024-02-26T14:36:34;13.60;;;8.98;;
43676;SDS011;29275;48.800;18.102;2024-02-26T14:39:37;14.43;;;9.23;;
43676;SDS011;29275;48.800;18.102;2024-02-26T14:42:41;14.68;;;9.65;;
43676;SDS011;29275;48.800;18.102;2024-02-26T14:45:44;15.20;;;9.98;;
43676;SDS011;29275;48.800;18.102;2024-02-26T14:48:47;15.23;;;10.13;;
43676;SDS011;29275;48.800;18.102;2024-02-26T14:51:50;13.45;;;9.38;;
43676;SDS011;29275;48.800;18.102;2024-02-26T14:54:54;14.10;;;9.88;;
43676;SDS011;29275;48.800;18.102;2024-02-26T14:57:57;13.05;;;9.65;;
43676;SDS011;29275;48.800;18.102;2024-02-26T15:01:00;13.82;;;9.68;;
43676;SDS011;29275;48.800;18.102;2024-02-26T15:04:03;13.23;;;8.82;;
43676;SDS011;29275;48.800;18.102;2024-02-26T15:07:06;14.45;;;10.45;;
43676;SDS011;29275;48.800;18.102;2024-02-26T15:10:12;21.33;;;12.43;;
43676;SDS011;29275;48.800;18.102;2024-02-26T15:13:15;18.10;;;11.63;;
43676;SDS011;29275;48.800;18.102;2024-02-26T15:16:20;16.63;;;12.05;;
43676;SDS011;29275;48.800;18.102;2024-02-26T15:19:23;19.00;;;11.13;;
43676;SDS011;29275;48.800;18.102;2024-02-26T15:22:26;15.60;;;11.75;;
43676;SDS011;29275;48.800;18.102;2024-02-26T15:25:30;15.73;;;11.15;;
43676;SDS011;29275;48.800;18.102;2024-02-26T15:28:32;13.20;;;10.32;;
43676;SDS011;29275;48.800;18.102;2024-02-26T15:31:36;19.35;;;11.73;;
43676;SDS011;29275;48.800;18.102;2024-02-26T15:34:39;17.13;;;11.50;;
43676;SDS011;29275;48.800;18.102;2024-02-26T15:37:42;16.95;;;11.73;;
43676;SDS011;29275;48.800;18.102;2024-02-26T15:40:45;16.48;;;11.20;;
43676;SDS011;29275;48.800;18.102;2024-02-26T15:43:49;15.45;;;11.82;;
43676;SDS011;29275;48.800;18.102;2024-02-26T15:46:53;15.88;;;12.07;;
43676;SDS011;29275;48.800;18.102;2024-02-26T15:49:56;14.98;;;11.70;;
43676;SDS011;29275;48.800;18.102;2024-02-26T15:52:58;17.42;;;12.20;;
43676;SDS011;29275;48.800;18.102;2024-02-26T15:56:01;15.95;;;12.43;;
43676;SDS011;29275;48.800;18.102;2024-02-26T15:59:04;15.63;;;12.02;;
43676;SDS011;29275;48.800;18.102;2024-02-26T16:02:07;17.83;;;13.27;;
43676;SDS011;29275;48.800;18.102;2024-02-26T16:05:11;19.73;;;13.75;;
43676;SDS011;29275;48.800;18.102;2024-02-26T16:08:20;19.60;;;13.32;;
43676;SDS011;29275;48.800;18.102;2024-02-26T16:11:24;17.48;;;12.50;;
43676;SDS011;29275;48.800;18.102;2024-02-26T16:14:35;17.30;;;13.25;;
43676;SDS011;29275;48.800;18.102;2024-02-26T16:17:41;22.20;;;12.95;;
43676;SDS011;29275;48.800;18.102;2024-02-26T16:20:53;19.35;;;13.23;;
43676;SDS011;29275;48.800;18.102;2024-02-26T16:23:56;16.10;;;12.02;;
43676;SDS011;29275;48.800;18.102;2024-02-26T16:27:00;18.05;;;13.00;;
43676;SDS011;29275;48.800;18.102;2024-02-26T16:30:04;19.67;;;13.90;;
43676;SDS011;29275;48.800;18.102;2024-02-26T16:33:08;21.42;;;14.25;;
43676;SDS011;29275;48.800;18.102;2024-02-26T16:36:11;19.15;;;13.73;;
43676;SDS011;29275;48.800;18.102;2024-02-26T16:39:14;19.23;;;14.25;;
43676;SDS011;29275;48.800;18.102;2024-02-26T16:42:17;21.02;;;14.55;;
43676;SDS011;29275;48.800;18.102;2024-02-26T16:45:21;19.52;;;14.43;;
43676;SDS011;29275;48.800;18.102;2024-02-26T16:48:25;20.52;;;14.93;;
43676;SDS011;29275;48.800;18.102;2024-02-26T16:51:28;20.02;;;15.23;;
43676;SDS011;29275;48.800;18.102;2024-02-26T16:54:31;19.13;;;14.63;;
43676;SDS011;29275;48.800;18.102;2024-02-26T16:57:34;21.52;;;16.10;;
43676;SDS011;29275;48.800;18.102;2024-02-26T17:00:36;19.88;;;14.65;;
43676;SDS011;29275;48.800;18.102;2024-02-26T17:03:40;19.48;;;14.98;;
43676;SDS011;29275;48.800;18.102;2024-02-26T17:06:42;22.75;;;15.93;;
43676;SDS011;29275;48.800;18.102;2024-02-26T17:09:45;22.75;;;15.38;;
43676;SDS011;29275;48.800;18.102;2024-02-26T17:12:48;22.08;;;15.90;;
43676;SDS011;29275;48.800;18.102;2024-02-26T17:15:51;23.73;;;17.38;;
43676;SDS011;29275;48.800;18.102;2024-02-26T17:18:54;26.08;;;17.50;;
43676;SDS011;29275;48.800;18.102;2024-02-26T17:21:57;26.67;;;16.85;;
43676;SDS011;29275;48.800;18.102;2024-02-26T17:24:59;26.05;;;17.40;;
43676;SDS011;29275;48.800;18.102;2024-02-26T17:28:02;25.40;;;17.38;;
43676;SDS011;29275;48.800;18.102;2024-02-26T17:31:05;25.02;;;18.50;;
43676;SDS011;29275;48.800;18.102;2024-02-26T17:34:09;24.92;;;19.40;;
43676;SDS011;29275;48.800;18.102;2024-02-26T17:37:14;27.70;;;18.23;;
43676;SDS011;29275;48.800;18.102;2024-02-26T17:40:17;26.73;;;19.55;;
43676;SDS011;29275;48.800;18.102;2024-02-26T17:43:20;27.08;;;20.75;;
43676;SDS011;29275;48.800;18.102;2024-02-26T17:46:23;26.38;;;19.35;;
43676;SDS011;29275;48.800;18.102;2024-02-26T17:49:25;28.52;;;19.98;;
43676;SDS011;29275;48.800;18.102;2024-02-26T17:52:30;28.90;;;19.88;;
43676;SDS011;29275;48.800;18.102;2024-02-26T17:55:42;27.98;;;18.90;;
43676;SDS011;29275;48.800;18.102;2024-02-26T17:58:45;29.70;;;21.17;;
43676;SDS011;29275;48.800;18.102;2024-02-26T18:01:47;30.30;;;20.52;;
43676;SDS011;29275;48.800;18.102;2024-02-26T18:04:50;29.35;;;21.88;;
43676;SDS011;29275;48.800;18.102;2024-02-26T18:07:53;25.73;;;19.35;;
43676;SDS011;29275;48.800;18.102;2024-02-26T18:10:57;25.65;;;19.65;;
43676;SDS011;29275;48.800;18.102;2024-02-26T18:13:59;28.23;;;21.20;;
43676;SDS011;29275;48.800;18.102;2024-02-26T18:17:02;25.60;;;20.52;;
43676;SDS011;29275;48.800;18.102;2024-02-26T18:20:05;29.40;;;22.48;;
43676;SDS011;29275;48.800;18.102;2024-02-26T18:23:10;26.45;;;20.90;;
43676;SDS011;29275;48.800;18.102;2024-02-26T18:26:13;33.15;;;22.95;;